createdAt,value
2023-03-06T00:00:33.692Z,95.13
2023-03-06T00:01:33.393Z,95.13
2023-03-06T00:02:33.382Z,94.92
2023-03-06T00:03:33.399Z,95.23
2023-03-06T00:04:33.361Z,95.44
2023-03-06T00:05:34.146Z,95.44
2023-03-06T00:06:33.336Z,95.23
2023-03-06T00:07:33.339Z,95.44
2023-03-06T00:08:33.321Z,95.44
2023-03-06T00:09:33.310Z,95.23
2023-03-06T00:10:33.351Z,95.03
2023-03-06T00:11:33.289Z,95.03
2023-03-06T00:12:33.274Z,95.13
2023-03-06T00:13:33.271Z,95.13
2023-03-06T00:14:33.262Z,95.44
2023-03-06T00:15:33.544Z,95.13
2023-03-06T00:16:33.288Z,94.82
2023-03-06T00:17:33.248Z,94.82
2023-03-06T00:18:33.215Z,94.50
2023-03-06T00:19:33.213Z,95.13
2023-03-06T00:20:33.564Z,94.96
2023-03-06T00:21:33.193Z,94.96
2023-03-06T00:22:33.176Z,95.59
2023-03-06T00:23:33.178Z,96.01
2023-03-06T00:24:33.162Z,96.01
2023-03-06T00:25:33.162Z,95.80
2023-03-06T00:26:33.146Z,95.70
2023-03-06T00:27:33.150Z,96.11
2023-03-06T00:28:33.121Z,96.47
2023-03-06T00:29:33.112Z,96.47
2023-03-06T00:30:33.429Z,96.47
2023-03-06T00:31:33.132Z,96.37
2023-03-06T00:32:33.179Z,96.16
2023-03-06T00:33:33.075Z,96.05
2023-03-06T00:34:33.060Z,96.16
2023-03-06T00:35:33.499Z,97.10
2023-03-06T00:36:33.036Z,97.00
2023-03-06T00:37:33.031Z,97.20
2023-03-06T00:38:33.014Z,97.20
2023-03-06T00:39:33.010Z,97.00
2023-03-06T00:40:33.319Z,97.00
2023-03-06T00:41:32.997Z,97.31
2023-03-06T00:42:32.980Z,97.62
2023-03-06T00:43:32.969Z,97.41
2023-03-06T00:44:32.963Z,97.20
2023-03-06T00:45:33.348Z,97.52
2023-03-06T00:46:32.936Z,97.41
2023-03-06T00:47:32.930Z,97.00
2023-03-06T00:48:32.919Z,96.68
2023-03-06T00:49:32.909Z,96.89
2023-03-06T00:50:33.585Z,97.25
2023-03-06T00:51:32.901Z,97.52
2023-03-06T00:52:32.873Z,97.41
2023-03-06T00:53:32.866Z,97.52
2023-03-06T00:54:32.859Z,97.94
2023-03-06T00:55:33.186Z,98.56
2023-03-06T00:56:32.833Z,98.46
2023-03-06T00:57:32.829Z,98.04
2023-03-06T00:58:32.823Z,97.83
2023-03-06T00:59:32.809Z,97.52
2023-03-06T01:00:33.633Z,97.62
2023-03-06T01:01:32.792Z,97.83
2023-03-06T01:02:32.902Z,97.83
2023-03-06T01:03:32.767Z,97.62
2023-03-06T01:04:32.755Z,97.31
2023-03-06T01:05:33.064Z,97.10
2023-03-06T01:06:33.215Z,97.10
2023-03-06T01:07:32.736Z,97.31
2023-03-06T01:08:32.724Z,97.20
2023-03-06T01:09:32.707Z,97.20
2023-03-06T01:10:32.691Z,97.31
2023-03-06T01:11:33.400Z,97.72
2023-03-06T01:12:32.671Z,97.83
2023-03-06T01:13:32.665Z,97.72
2023-03-06T01:14:32.656Z,97.89
2023-03-06T01:15:32.647Z,97.99
2023-03-06T01:16:32.671Z,97.89
2023-03-06T01:17:32.631Z,97.89
2023-03-06T01:18:32.619Z,97.78
2023-03-06T01:19:32.605Z,97.68
2023-03-06T01:20:32.592Z,97.68
2023-03-06T01:21:32.590Z,97.78
2023-03-06T01:22:32.581Z,97.68
2023-03-06T01:23:32.562Z,97.68
2023-03-06T01:24:32.552Z,97.58
2023-03-06T01:25:32.545Z,97.47
2023-03-06T01:26:32.536Z,97.47
2023-03-06T01:27:32.525Z,97.47
2023-03-06T01:28:32.509Z,97.47
2023-03-06T01:29:32.506Z,97.47
2023-03-06T01:30:32.492Z,97.58
2023-03-06T01:31:32.569Z,97.43
2023-03-06T01:32:32.504Z,97.37
2023-03-06T01:33:32.460Z,97.37
2023-03-06T01:34:32.448Z,97.32
2023-03-06T01:35:32.488Z,97.37
2023-03-06T01:36:32.431Z,97.32
2023-03-06T01:37:32.437Z,97.27
2023-03-06T01:38:32.431Z,97.16
2023-03-06T01:39:32.405Z,97.27
2023-03-06T01:40:32.394Z,97.47
2023-03-06T01:41:32.392Z,97.53
2023-03-06T01:42:32.369Z,97.32
2023-03-06T01:43:32.370Z,97.22
2023-03-06T01:44:32.354Z,97.43
2023-03-06T01:45:32.400Z,97.37
2023-03-06T01:46:32.345Z,97.11
2023-03-06T01:47:32.335Z,96.95
2023-03-06T01:48:32.314Z,96.84
2023-03-06T01:49:32.319Z,97.05
2023-03-06T01:50:32.293Z,97.47
2023-03-06T01:51:32.711Z,97.37
2023-03-06T01:52:32.280Z,97.05
2023-03-06T01:53:32.278Z,97.05
2023-03-06T01:54:32.252Z,97.16
2023-03-06T01:55:32.257Z,97.05
2023-03-06T01:56:32.557Z,97.27
2023-03-06T01:57:32.232Z,97.47
2023-03-06T01:58:32.220Z,97.37
2023-03-06T02:00:59.689Z,97.47
2023-03-06T02:01:04.727Z,97.27
2023-03-06T02:02:04.745Z,97.37
2023-03-06T02:03:04.694Z,97.58
2023-03-06T02:04:04.669Z,97.89
2023-03-06T02:05:04.672Z,97.89
2023-03-06T02:06:04.676Z,98.10
2023-03-06T02:07:04.650Z,97.99
2023-03-06T02:08:04.639Z,97.89
2023-03-06T02:09:04.624Z,97.99
2023-03-06T02:10:04.616Z,98.10
2023-03-06T02:11:04.612Z,98.10
2023-03-06T02:12:04.600Z,98.21
2023-03-06T02:13:04.588Z,98.21
2023-03-06T02:14:04.570Z,98.10
2023-03-06T02:15:04.642Z,98.21
2023-03-06T02:16:04.556Z,98.10
2023-03-06T02:17:04.558Z,97.89
2023-03-06T02:18:04.536Z,97.99
2023-03-06T02:19:04.529Z,98.10
2023-03-06T02:20:04.515Z,98.31
2023-03-06T02:21:04.504Z,98.31
2023-03-06T02:22:04.725Z,98.31
2023-03-06T02:23:04.484Z,98.31
2023-03-06T02:24:04.561Z,98.31
2023-03-06T02:25:04.467Z,98.31
2023-03-06T02:26:04.460Z,98.10
2023-03-06T02:27:04.463Z,98.21
2023-03-06T02:28:04.451Z,98.10
2023-03-06T02:29:04.426Z,98.10
2023-03-06T02:30:04.426Z,98.31
2023-03-06T02:31:04.447Z,98.21
2023-03-06T02:32:04.437Z,98.26
2023-03-06T02:33:04.398Z,98.05
2023-03-06T02:34:04.379Z,97.85
2023-03-06T02:35:04.367Z,97.85
2023-03-06T02:36:04.353Z,97.85
2023-03-06T02:37:04.351Z,97.74
2023-03-06T02:38:04.338Z,97.74
2023-03-06T02:39:04.321Z,97.53
2023-03-06T02:40:04.330Z,97.43
2023-03-06T02:41:04.306Z,97.32
2023-03-06T02:42:04.306Z,97.64
2023-03-06T02:43:04.283Z,97.74
2023-03-06T02:44:04.280Z,97.85
2023-03-06T02:45:04.282Z,97.85
2023-03-06T02:46:04.268Z,97.74
2023-03-06T02:47:04.245Z,97.74
2023-03-06T02:48:04.236Z,97.85
2023-03-06T02:49:04.223Z,97.99
2023-03-06T02:50:04.215Z,97.95
2023-03-06T02:51:04.201Z,97.95
2023-03-06T02:52:04.201Z,97.85
2023-03-06T02:53:04.191Z,97.74
2023-03-06T02:54:04.173Z,97.85
2023-03-06T02:55:04.171Z,97.74
2023-03-06T02:56:04.169Z,97.64
2023-03-06T02:57:04.162Z,97.78
2023-03-06T02:58:04.137Z,97.95
2023-03-06T02:59:04.117Z,98.10
2023-03-06T03:00:04.120Z,98.05
2023-03-06T03:01:04.100Z,98.05
2023-03-06T03:02:04.096Z,97.99
2023-03-06T03:03:04.076Z,98.16
2023-03-06T03:04:04.083Z,98.16
2023-03-06T03:05:04.062Z,98.10
2023-03-06T03:06:04.049Z,98.05
2023-03-06T03:07:04.064Z,97.99
2023-03-06T03:08:04.030Z,97.99
2023-03-06T03:09:04.023Z,97.99
2023-03-06T03:10:04.015Z,98.05
2023-03-06T03:11:03.996Z,98.05
2023-03-06T03:12:03.998Z,98.05
2023-03-06T03:13:03.983Z,98.10
2023-03-06T03:14:03.974Z,98.26
2023-03-06T03:15:03.958Z,98.37
2023-03-06T03:16:04.044Z,98.37
2023-03-06T03:17:03.944Z,98.37
2023-03-06T03:18:03.933Z,98.41
2023-03-06T03:19:03.922Z,98.47
2023-03-06T03:20:03.917Z,98.47
2023-03-06T03:21:03.899Z,98.47
2023-03-06T03:22:03.904Z,98.47
2023-03-06T03:23:03.880Z,98.58
2023-03-06T03:24:03.874Z,98.58
2023-03-06T03:25:03.863Z,98.47
2023-03-06T03:26:03.857Z,98.37
2023-03-06T03:27:03.849Z,98.26
2023-03-06T03:28:03.848Z,98.26
2023-03-06T03:29:03.824Z,98.16
2023-03-06T03:30:03.818Z,98.26
2023-03-06T03:31:03.862Z,98.26
2023-03-06T03:32:03.807Z,98.26
2023-03-06T03:33:03.790Z,98.37
2023-03-06T03:34:03.784Z,98.58
2023-03-06T03:35:03.774Z,98.68
2023-03-06T03:36:03.763Z,98.68
2023-03-06T03:37:03.749Z,98.47
2023-03-06T03:38:03.746Z,98.37
2023-03-06T03:39:03.731Z,98.26
2023-03-06T03:40:03.721Z,98.58
2023-03-06T03:41:03.703Z,98.68
2023-03-06T03:42:03.702Z,98.58
2023-03-06T03:43:03.682Z,98.58
2023-03-06T03:44:03.682Z,98.58
2023-03-06T03:45:03.666Z,98.47
2023-03-06T03:46:03.682Z,98.58
2023-03-06T03:47:03.653Z,98.47
2023-03-06T03:48:03.640Z,98.47
2023-03-06T03:49:03.626Z,98.58
2023-03-06T03:50:03.622Z,98.58
2023-03-06T03:51:03.607Z,98.68
2023-03-06T03:52:03.606Z,98.53
2023-03-06T03:53:03.598Z,98.63
2023-03-06T03:54:03.588Z,98.63
2023-03-06T03:55:03.566Z,98.63
2023-03-06T03:56:03.563Z,98.63
2023-03-06T03:57:03.563Z,98.63
2023-03-06T03:58:03.541Z,98.53
2023-03-06T03:59:03.523Z,98.53
2023-03-06T04:00:03.528Z,98.43
2023-03-06T04:01:03.520Z,98.43
2023-03-06T04:02:03.562Z,98.32
2023-03-06T04:03:03.489Z,98.22
2023-03-06T04:04:03.488Z,98.32
2023-03-06T04:05:03.514Z,98.32
2023-03-06T04:06:03.458Z,98.22
2023-03-06T04:07:03.460Z,98.43
2023-03-06T04:08:03.456Z,98.32
2023-03-06T04:09:03.426Z,98.32
2023-03-06T04:10:03.426Z,98.22
2023-03-06T04:11:03.418Z,98.22
2023-03-06T04:12:03.471Z,98.32
2023-03-06T04:13:03.393Z,98.32
2023-03-06T04:14:03.377Z,98.43
2023-03-06T04:15:03.364Z,98.32
2023-03-06T04:16:03.410Z,98.22
2023-03-06T04:17:03.361Z,98.22
2023-03-06T04:18:03.345Z,98.32
2023-03-06T04:19:03.334Z,98.43
2023-03-06T04:20:03.322Z,98.43
2023-03-06T04:21:03.307Z,98.43
2023-03-06T04:22:03.309Z,98.32
2023-03-06T04:23:03.287Z,98.43
2023-03-06T04:24:03.281Z,98.32
2023-03-06T04:25:03.272Z,98.32
2023-03-06T04:26:03.279Z,98.32
2023-03-06T04:27:03.257Z,98.43
2023-03-06T04:28:03.243Z,98.43
2023-03-06T04:29:03.233Z,98.32
2023-03-06T04:30:03.239Z,98.22
2023-03-06T04:31:03.354Z,98.22
2023-03-06T04:32:03.294Z,98.32
2023-03-06T04:33:03.191Z,98.43
2023-03-06T04:34:03.188Z,98.43
2023-03-06T04:35:03.173Z,98.43
2023-03-06T04:36:03.165Z,98.32
2023-03-06T04:37:03.156Z,98.32
2023-03-06T04:38:03.157Z,98.43
2023-03-06T04:39:03.212Z,98.53
2023-03-06T04:40:03.130Z,98.63
2023-03-06T04:41:03.112Z,98.53
2023-03-06T04:42:03.111Z,98.53
2023-03-06T04:43:03.097Z,98.43
2023-03-06T04:44:03.103Z,98.63
2023-03-06T04:45:03.070Z,98.63
2023-03-06T04:46:03.151Z,98.85
2023-03-06T04:47:03.056Z,98.85
2023-03-06T04:48:03.065Z,98.74
2023-03-06T04:49:03.032Z,98.74
2023-03-06T04:50:03.029Z,98.95
2023-03-06T04:51:03.015Z,98.95
2023-03-06T04:52:03.012Z,98.95
2023-03-06T04:53:02.988Z,98.95
2023-03-06T04:54:02.987Z,98.85
2023-03-06T04:55:02.969Z,98.74
2023-03-06T04:56:02.980Z,98.74
2023-03-06T04:57:02.960Z,98.95
2023-03-06T04:58:02.959Z,99.16
2023-03-06T04:59:02.938Z,99.05
2023-03-06T05:00:02.923Z,99.16
2023-03-06T05:01:03.046Z,99.16
2023-03-06T05:02:02.976Z,99.16
2023-03-06T05:03:02.900Z,99.16
2023-03-06T05:04:02.888Z,99.16
2023-03-06T05:05:02.869Z,99.37
2023-03-06T05:06:02.867Z,99.57
2023-03-06T05:07:02.856Z,99.57
2023-03-06T05:08:02.858Z,99.37
2023-03-06T05:09:02.856Z,99.47
2023-03-06T05:10:02.826Z,99.47
2023-03-06T05:11:02.812Z,99.57
2023-03-06T05:12:02.837Z,99.57
2023-03-06T05:13:02.800Z,99.57
2023-03-06T05:14:02.789Z,99.47
2023-03-06T05:15:02.765Z,99.37
2023-03-06T05:16:02.778Z,99.47
2023-03-06T05:17:02.759Z,99.57
2023-03-06T05:18:02.753Z,99.57
2023-03-06T05:19:02.729Z,99.37
2023-03-06T05:20:02.721Z,99.47
2023-03-06T05:21:02.711Z,99.43
2023-03-06T05:22:02.708Z,99.43
2023-03-06T05:23:02.694Z,99.43
2023-03-06T05:24:02.683Z,99.43
2023-03-06T05:25:02.669Z,99.32
2023-03-06T05:26:02.664Z,99.37
2023-03-06T05:27:03.120Z,99.32
2023-03-06T05:28:02.646Z,99.53
2023-03-06T05:29:02.626Z,99.53
2023-03-06T05:30:02.619Z,99.53
2023-03-06T05:31:03.556Z,99.53
2023-03-06T05:32:02.743Z,99.53
2023-03-06T05:33:02.586Z,99.43
2023-03-06T05:34:02.537Z,99.43
2023-03-06T05:35:02.523Z,99.43
2023-03-06T05:36:02.517Z,99.43
2023-03-06T05:37:02.565Z,99.32
2023-03-06T05:38:02.522Z,99.32
2023-03-06T05:39:02.484Z,99.43
2023-03-06T05:40:02.481Z,99.32
2023-03-06T05:41:02.467Z,99.32
2023-03-06T05:42:03.216Z,99.22
2023-03-06T05:43:02.441Z,99.22
2023-03-06T05:44:02.432Z,99.11
2023-03-06T05:45:02.463Z,99.11
2023-03-06T05:46:02.487Z,99.11
2023-03-06T05:47:02.710Z,99.22
2023-03-06T05:48:02.404Z,99.22
2023-03-06T05:49:02.388Z,99.22
2023-03-06T05:50:02.378Z,99.11
2023-03-06T05:51:02.368Z,99.11
2023-03-06T05:52:02.354Z,99.22
2023-03-06T05:53:02.347Z,99.11
2023-03-06T05:54:02.346Z,99.11
2023-03-06T05:55:02.314Z,99.11
2023-03-06T05:56:02.332Z,99.22
2023-03-06T05:57:02.305Z,99.11
2023-03-06T05:58:02.310Z,99.11
2023-03-06T05:59:02.280Z,99.01
2023-03-06T06:00:02.286Z,99.01
2023-03-06T06:01:02.262Z,99.01
2023-03-06T06:02:02.288Z,99.01
2023-03-06T06:03:02.241Z,99.01
2023-03-06T06:04:02.241Z,99.01
2023-03-06T06:05:02.226Z,99.11
2023-03-06T06:06:02.214Z,99.11
2023-03-06T06:07:02.201Z,99.22
2023-03-06T06:08:02.213Z,99.22
2023-03-06T06:09:02.185Z,99.32
2023-03-06T06:10:03.765Z,99.22
2023-03-06T06:11:02.160Z,99.32
2023-03-06T06:12:02.152Z,99.22
2023-03-06T06:13:02.149Z,99.32
2023-03-06T06:14:02.140Z,99.43
2023-03-06T06:15:02.126Z,99.43
2023-03-06T06:16:02.132Z,99.43
2023-03-06T06:17:02.102Z,99.43
2023-03-06T06:18:02.100Z,99.43
2023-03-06T06:19:02.085Z,99.43
2023-03-06T06:20:02.079Z,99.43
2023-03-06T06:21:02.056Z,99.43
2023-03-06T06:22:02.073Z,99.63
2023-03-06T06:23:02.065Z,99.84
2023-03-06T06:24:02.037Z,99.95
2023-03-06T06:25:02.026Z,99.95
2023-03-06T06:26:02.023Z,99.95
2023-03-06T06:27:03.872Z,99.95
2023-03-06T06:28:02.004Z,99.95
2023-03-06T06:29:01.980Z,99.84
2023-03-06T06:30:01.973Z,99.74
2023-03-06T06:31:01.973Z,99.74
2023-03-06T06:32:01.977Z,99.74
2023-03-06T06:33:01.955Z,99.74
2023-03-06T06:34:01.929Z,99.84
2023-03-06T06:35:01.927Z,99.84
2023-03-06T06:36:01.916Z,99.95
2023-03-06T06:37:01.906Z,99.95
2023-03-06T06:38:01.901Z,99.95
2023-03-06T06:39:01.901Z,99.84
2023-03-06T06:40:01.869Z,99.84
2023-03-06T06:41:31.073Z,99.84
2023-03-06T06:42:26.158Z,99.84
2023-03-06T06:43:01.856Z,99.74
2023-03-06T06:44:01.833Z,99.74
2023-03-06T06:45:01.851Z,99.84
2023-03-06T06:46:19.917Z,99.95
2023-03-06T06:48:01.843Z,99.80
2023-03-06T06:49:01.791Z,99.69
2023-03-06T06:50:01.789Z,99.59
2023-03-06T06:51:01.772Z,99.48
2023-03-06T06:52:01.756Z,99.48
2023-03-06T06:53:01.758Z,99.48
2023-03-06T06:54:01.744Z,99.38
2023-03-06T06:55:01.726Z,99.38
2023-03-06T06:56:01.716Z,99.48
2023-03-06T06:57:01.714Z,99.48
2023-03-06T06:58:01.807Z,99.59
2023-03-06T06:59:15.715Z,99.69
2023-03-06T07:00:01.689Z,99.69
2023-03-06T07:01:01.666Z,99.59
2023-03-06T07:02:01.657Z,99.48
2023-03-06T07:03:01.691Z,99.27
2023-03-06T07:04:01.829Z,99.27
2023-03-06T07:05:05.066Z,99.07
2023-03-06T07:06:01.612Z,98.96
2023-03-06T07:07:01.634Z,98.96
2023-03-06T07:08:01.597Z,98.96
2023-03-06T07:09:01.692Z,98.96
2023-03-06T07:10:01.586Z,99.02
2023-03-06T07:11:01.577Z,99.02
2023-03-06T07:12:01.602Z,99.02
2023-03-06T07:13:01.552Z,98.82
2023-03-06T07:14:01.540Z,98.92
2023-03-06T07:15:01.537Z,98.82
2023-03-06T07:16:01.564Z,98.60
2023-03-06T07:17:01.503Z,98.50
2023-03-06T07:18:01.498Z,98.50
2023-03-06T07:19:01.505Z,98.60
2023-03-06T07:20:01.475Z,98.60
2023-03-06T07:21:01.601Z,98.50
2023-03-06T07:22:01.463Z,98.50
2023-03-06T07:23:01.491Z,98.50
2023-03-06T07:24:01.434Z,98.39
2023-03-06T07:25:01.448Z,98.39
2023-03-06T07:26:01.421Z,98.29
2023-03-06T07:27:01.409Z,98.29
2023-03-06T07:28:01.396Z,98.39
2023-03-06T07:29:01.400Z,98.35
2023-03-06T07:30:01.374Z,98.35
2023-03-06T07:31:01.406Z,98.14
2023-03-06T07:32:01.437Z,97.72
2023-03-06T07:33:01.360Z,97.83
2023-03-06T07:34:03.844Z,97.58
2023-03-06T07:35:18.952Z,97.37
2023-03-06T07:36:01.392Z,97.06
2023-03-06T07:37:01.337Z,96.95
2023-03-06T07:38:01.297Z,97.06
2023-03-06T07:39:01.301Z,97.37
2023-03-06T07:40:01.287Z,97.27
2023-03-06T07:41:01.269Z,97.06
2023-03-06T07:42:01.279Z,96.70
2023-03-06T07:43:16.926Z,96.39
2023-03-06T07:44:01.261Z,96.28
2023-03-06T07:45:01.252Z,95.97
2023-03-06T07:46:01.228Z,95.87
2023-03-06T07:47:01.210Z,95.97
2023-03-06T07:48:01.204Z,96.18
2023-03-06T07:49:01.205Z,95.97
2023-03-06T07:50:01.179Z,96.28
2023-03-06T07:51:01.203Z,96.34
2023-03-06T07:52:01.160Z,95.87
2023-03-06T07:53:01.150Z,95.66
2023-03-06T07:54:01.147Z,95.56
2023-03-06T07:55:01.148Z,95.45
2023-03-06T07:56:01.134Z,95.35
2023-03-06T07:57:01.125Z,95.45
2023-03-06T07:58:01.132Z,95.35
2023-03-06T07:59:01.094Z,95.35
2023-03-06T08:00:01.073Z,95.66
2023-03-06T08:01:01.123Z,95.87
2023-03-06T08:02:01.063Z,95.76
2023-03-06T08:03:01.141Z,95.87
2023-03-06T08:04:01.115Z,95.87
2023-03-06T08:05:01.044Z,95.91
2023-03-06T08:06:01.025Z,96.01
2023-03-06T08:07:01.019Z,96.12
2023-03-06T08:08:01.001Z,96.33
2023-03-06T08:09:01.000Z,96.53
2023-03-06T08:10:00.982Z,96.22
2023-03-06T08:11:00.968Z,96.43
2023-03-06T08:12:00.961Z,96.75
2023-03-06T08:13:00.952Z,97.06
2023-03-06T08:14:00.941Z,97.16
2023-03-06T08:15:00.934Z,97.27
2023-03-06T08:16:00.955Z,97.47
2023-03-06T08:17:00.909Z,97.58
2023-03-06T08:18:00.916Z,97.68
2023-03-06T08:19:00.895Z,97.99
2023-03-06T08:20:00.876Z,97.78
2023-03-06T08:21:00.868Z,97.53
2023-03-06T08:22:00.864Z,97.53
2023-03-06T08:23:00.864Z,97.53
2023-03-06T08:24:00.835Z,97.43
2023-03-06T08:25:00.826Z,97.53
2023-03-06T08:26:00.825Z,97.12
2023-03-06T08:27:00.813Z,96.70
2023-03-06T08:28:00.974Z,97.01
2023-03-06T08:29:00.791Z,97.53
2023-03-06T08:30:00.801Z,97.64
2023-03-06T08:31:00.765Z,97.64
2023-03-06T08:32:00.761Z,97.43
2023-03-06T08:33:01.588Z,97.22
2023-03-06T08:34:00.734Z,96.86
2023-03-06T08:35:00.725Z,97.43
2023-03-06T08:36:02.073Z,97.43
2023-03-06T08:37:00.710Z,97.70
2023-03-06T08:38:00.998Z,97.49
2023-03-06T08:39:00.692Z,97.28
2023-03-06T08:40:00.693Z,97.01
2023-03-06T08:41:00.668Z,96.76
2023-03-06T08:42:00.654Z,96.86
2023-03-06T08:43:01.451Z,96.76
2023-03-06T08:44:00.632Z,96.55
2023-03-06T08:45:00.625Z,96.34
2023-03-06T08:46:00.680Z,96.14
2023-03-06T08:47:00.606Z,96.34
2023-03-06T08:48:01.055Z,96.55
2023-03-06T08:49:00.594Z,96.45
2023-03-06T08:50:00.935Z,96.45
2023-03-06T08:51:00.581Z,97.07
2023-03-06T08:52:00.545Z,97.28
2023-03-06T08:53:00.544Z,96.76
2023-03-06T08:54:00.543Z,96.66
2023-03-06T08:55:00.528Z,96.14
2023-03-06T08:56:00.508Z,96.24
2023-03-06T08:57:00.507Z,96.24
2023-03-06T08:58:00.488Z,96.55
2023-03-06T08:59:00.500Z,96.76
2023-03-06T09:00:00.502Z,97.03
2023-03-06T09:01:00.612Z,97.24
2023-03-06T09:02:00.518Z,97.34
2023-03-06T09:03:00.450Z,97.61
2023-03-06T09:04:00.444Z,97.61
2023-03-06T09:05:00.421Z,97.40
2023-03-06T09:06:00.413Z,96.88
2023-03-06T09:07:00.401Z,96.25
2023-03-06T09:08:00.391Z,95.73
2023-03-06T09:09:00.403Z,95.63
2023-03-06T09:10:00.366Z,96.15
2023-03-06T09:11:00.370Z,95.11
2023-03-06T09:12:00.342Z,94.28
2023-03-06T09:13:00.335Z,94.59
2023-03-06T09:14:00.327Z,94.59
2023-03-06T09:15:00.330Z,94.38
2023-03-06T09:16:00.303Z,95.32
2023-03-06T09:17:00.315Z,95.11
2023-03-06T09:18:00.375Z,95.17
2023-03-06T09:19:00.288Z,95.59
2023-03-06T09:20:00.274Z,95.59
2023-03-06T09:21:00.274Z,94.13
2023-03-06T09:22:00.248Z,93.62
2023-03-06T09:23:00.249Z,92.74
2023-03-06T09:24:00.275Z,92.01
2023-03-06T09:25:00.222Z,92.01
2023-03-06T09:26:00.201Z,92.53
2023-03-06T09:27:00.204Z,92.80
2023-03-06T09:28:10.956Z,93.01
2023-03-06T09:29:00.206Z,92.69
2023-03-06T09:30:00.179Z,91.72
2023-03-06T09:31:00.186Z,91.52
2023-03-06T09:32:00.308Z,90.37
2023-03-06T09:33:00.137Z,90.37
2023-03-06T09:34:00.142Z,87.57
2023-03-06T09:35:00.140Z,88.88
2023-03-06T09:36:00.186Z,88.57
2023-03-06T09:37:00.104Z,89.09
2023-03-06T09:38:00.122Z,87.53
2023-03-06T09:39:00.098Z,85.52
2023-03-06T09:40:00.106Z,86.97
2023-03-06T09:41:00.082Z,86.66
2023-03-06T09:42:00.062Z,84.80
2023-03-06T09:43:00.040Z,86.35
2023-03-06T09:44:00.038Z,85.83
2023-03-06T09:45:00.022Z,85.89
2023-03-06T09:46:00.088Z,85.17
2023-03-06T09:46:59.999Z,86.07
2023-03-06T09:47:59.991Z,86.65
2023-03-06T09:48:59.985Z,82.09
2023-03-06T09:49:59.965Z,83.81
2023-03-06T09:50:59.965Z,82.84
2023-03-06T09:51:59.944Z,80.63
2023-03-06T09:52:59.936Z,78.11
2023-03-06T09:53:59.939Z,76.77
2023-03-06T09:54:59.919Z,77.67
2023-03-06T09:55:59.907Z,75.67
2023-03-06T09:56:59.930Z,75.60
2023-03-06T09:57:59.880Z,72.12
2023-03-06T09:58:59.881Z,75.32
2023-03-06T10:00:01.473Z,73.39
2023-03-06T10:00:59.858Z,72.60
2023-03-06T10:01:59.852Z,74.88
2023-03-06T10:02:59.950Z,73.36
2023-03-06T10:03:59.843Z,74.12
2023-03-06T10:04:59.869Z,74.74
2023-03-06T10:06:02.435Z,74.22
2023-03-06T10:06:59.832Z,75.40
2023-03-06T10:07:59.814Z,72.81
2023-03-06T10:08:59.783Z,73.15
2023-03-06T10:09:59.770Z,74.74
2023-03-06T10:10:59.758Z,75.46
2023-03-06T10:11:59.764Z,76.19
2023-03-06T10:12:59.737Z,77.12
2023-03-06T10:13:59.733Z,78.02
2023-03-06T10:14:59.817Z,76.15
2023-03-06T10:15:59.733Z,75.53
2023-03-06T10:16:59.731Z,73.77
2023-03-06T10:17:59.688Z,73.98
2023-03-06T10:18:59.696Z,75.02
2023-03-06T10:19:59.719Z,73.74
2023-03-06T10:21:13.446Z,71.77
2023-03-06T10:21:59.653Z,70.94
2023-03-06T10:23:03.131Z,71.63
2023-03-06T10:23:59.672Z,70.67
2023-03-06T10:24:59.680Z,69.60
2023-03-06T10:25:59.780Z,70.84
2023-03-06T10:26:59.827Z,69.67
2023-03-06T10:27:59.583Z,69.06
2023-03-06T10:28:59.604Z,69.88
2023-03-06T10:30:03.230Z,68.74
2023-03-06T10:30:59.673Z,67.19
2023-03-06T10:31:59.545Z,67.54
2023-03-06T10:32:59.657Z,67.95
2023-03-06T10:33:59.534Z,66.91
2023-03-06T10:34:59.601Z,67.77
2023-03-06T10:35:59.596Z,70.36
2023-03-06T10:36:59.518Z,69.53
2023-03-06T10:37:59.512Z,70.15
2023-03-06T10:38:59.563Z,70.36
2023-03-06T10:39:59.511Z,69.25
2023-03-06T10:40:59.465Z,66.87
2023-03-06T10:41:59.452Z,67.80
2023-03-06T10:43:11.067Z,68.22
2023-03-06T10:43:59.500Z,68.12
2023-03-06T10:44:59.417Z,68.22
2023-03-06T10:45:59.472Z,66.77
2023-03-06T10:46:59.397Z,67.70
2023-03-06T10:47:59.406Z,66.35
2023-03-06T10:48:59.553Z,68.12
2023-03-06T10:49:59.479Z,65.42
2023-03-06T10:51:01.090Z,65.32
2023-03-06T10:51:59.351Z,64.90
2023-03-06T10:52:59.343Z,65.97
2023-03-06T10:53:59.333Z,65.87
2023-03-06T10:54:59.327Z,66.69
2023-03-06T10:55:59.330Z,65.87
2023-03-06T10:56:59.309Z,67.00
2023-03-06T10:57:59.301Z,66.80
2023-03-06T10:58:59.277Z,67.55
2023-03-06T10:59:59.273Z,67.76
2023-03-06T11:00:59.256Z,69.21
2023-03-06T11:01:59.382Z,68.70
2023-03-06T11:02:59.255Z,68.28
2023-03-06T11:03:59.239Z,68.93
2023-03-06T11:04:59.241Z,69.14
2023-03-06T11:05:59.228Z,69.17
2023-03-06T11:06:59.189Z,69.79
2023-03-06T11:07:59.189Z,69.27
2023-03-06T11:08:59.624Z,70.00
2023-03-06T11:09:59.176Z,70.52
2023-03-06T11:10:59.171Z,70.83
2023-03-06T11:11:59.144Z,71.35
2023-03-06T11:12:59.276Z,71.45
2023-03-06T11:13:59.971Z,71.49
2023-03-06T11:14:59.123Z,72.11
2023-03-06T11:15:59.198Z,71.59
2023-03-06T11:16:59.092Z,71.87
2023-03-06T11:17:59.087Z,72.60
2023-03-06T11:18:59.531Z,71.66
2023-03-06T11:19:59.105Z,71.77
2023-03-06T11:20:59.045Z,71.66
2023-03-06T11:21:59.056Z,71.14
2023-03-06T11:22:59.618Z,71.32
2023-03-06T11:23:59.356Z,71.84
2023-03-06T11:24:59.006Z,69.76
2023-03-06T11:25:58.999Z,68.73
2023-03-06T11:26:59.018Z,70.87
2023-03-06T11:27:58.992Z,70.97
2023-03-06T11:28:59.359Z,71.04
2023-03-06T11:29:58.956Z,70.73
2023-03-06T11:30:58.975Z,69.46
2023-03-06T11:31:58.952Z,69.56
2023-03-06T11:32:58.952Z,68.43
2023-03-06T11:33:59.698Z,67.08
2023-03-06T11:34:58.929Z,68.22
2023-03-06T11:35:58.948Z,66.66
2023-03-06T11:36:58.891Z,67.39
2023-03-06T11:37:58.881Z,67.18
2023-03-06T11:38:59.251Z,68.43
2023-03-06T11:39:58.864Z,67.29
2023-03-06T11:40:58.843Z,67.29
2023-03-06T11:41:58.920Z,68.08
2023-03-06T11:42:58.909Z,67.36
2023-03-06T11:43:58.818Z,65.70
2023-03-06T11:44:59.931Z,65.60
2023-03-06T11:45:58.806Z,66.42
2023-03-06T11:46:58.842Z,66.22
2023-03-06T11:47:58.801Z,66.02
2023-03-06T11:48:58.759Z,65.70
2023-03-06T11:49:58.782Z,65.70
2023-03-06T11:50:58.734Z,66.02
2023-03-06T11:51:58.764Z,66.09
2023-03-06T11:52:58.746Z,65.26
2023-03-06T11:53:58.737Z,65.88
2023-03-06T11:54:58.760Z,66.50
2023-03-06T11:55:58.732Z,66.60
2023-03-06T11:56:58.712Z,65.47
2023-03-06T11:57:58.671Z,65.99
2023-03-06T11:58:58.672Z,67.74
2023-03-06T11:59:58.654Z,67.12
2023-03-06T12:00:58.649Z,67.54
2023-03-06T12:01:58.678Z,67.12
2023-03-06T12:02:58.641Z,65.67
2023-03-06T12:03:58.729Z,66.09
2023-03-06T12:04:58.618Z,66.32
2023-03-06T12:05:58.723Z,66.42
2023-03-06T12:06:58.698Z,66.32
2023-03-06T12:07:58.580Z,65.91
2023-03-06T12:08:58.570Z,67.57
2023-03-06T12:09:58.564Z,66.02
2023-03-06T12:10:58.538Z,65.53
2023-03-06T12:11:58.569Z,65.53
2023-03-06T12:12:58.570Z,66.25
2023-03-06T12:13:59.442Z,66.15
2023-03-06T12:14:58.522Z,66.77
2023-03-06T12:15:58.498Z,67.11
2023-03-06T12:16:58.499Z,68.04
2023-03-06T12:17:58.576Z,67.83
2023-03-06T12:18:58.542Z,69.08
2023-03-06T12:19:58.475Z,68.66
2023-03-06T12:20:58.434Z,68.35
2023-03-06T12:21:58.501Z,67.52
2023-03-06T12:23:14.570Z,68.59
2023-03-06T12:23:58.423Z,68.07
2023-03-06T12:24:58.415Z,69.01
2023-03-06T12:25:58.494Z,68.49
2023-03-06T12:26:58.474Z,68.80
2023-03-06T12:27:58.376Z,68.38
2023-03-06T12:28:58.349Z,69.04
2023-03-06T12:29:58.399Z,68.93
2023-03-06T12:30:58.374Z,69.56
2023-03-06T12:31:58.374Z,69.66
2023-03-06T12:32:58.308Z,69.87
2023-03-06T12:33:58.397Z,70.70
2023-03-06T12:34:58.361Z,71.42
2023-03-06T12:35:58.348Z,71.01
2023-03-06T12:36:58.282Z,71.77
2023-03-06T12:37:58.272Z,72.70
2023-03-06T12:38:58.249Z,73.01
2023-03-06T12:39:58.315Z,73.94
2023-03-06T12:40:58.244Z,73.32
2023-03-06T12:41:58.256Z,74.26
2023-03-06T12:42:58.210Z,74.46
2023-03-06T12:43:58.231Z,75.81
2023-03-06T12:44:58.217Z,75.50
2023-03-06T12:45:58.260Z,76.75
2023-03-06T12:46:58.176Z,75.60
2023-03-06T12:47:58.180Z,75.92
2023-03-06T12:48:58.185Z,74.74
2023-03-06T12:49:58.192Z,74.32
2023-03-06T12:50:58.165Z,74.32
2023-03-06T12:51:58.133Z,74.32
2023-03-06T12:52:58.119Z,75.02
2023-03-06T12:53:58.107Z,74.50